Time;durP1;ratioP1;P1;durP2;ratioP2;P2;SDS_P1;SDS_P2;PMS_P1;PMS_P2;Temp;Humidity;BMP_temperature;BMP_pressure;BME280_temperature;BME280_humidity;BME280_pressure;Samples;Min_cycle;Max_cycle;Signal;HPM_P1;HPM_P2
2024/02/07 00:02:28;;;;;;;7.63;4.07;;;;;;;;;;5052603;28;20296;-83
2024/02/07 00:05:02;;;;;;;4.93;4.17;;;;;;;;;;5053738;28;20323;-79
2024/02/07 00:07:36;;;;;;;6.43;4.20;;;;;;;;;;5053887;28;20201;-79
2024/02/07 00:10:06;;;;;;;7.63;4.63;;;;;;;;;;5062763;28;20193;-79
2024/02/07 00:12:38;;;;;;;5.73;4.13;;;;;;;;;;5053685;28;20217;-79
2024/02/07 00:15:05;;;;;;;5.13;3.77;;;;;;;;;;5056322;28;20190;-82
2024/02/07 00:17:32;;;;;;;5.87;3.60;;;;;;;;;;5056633;28;20185;-79
2024/02/07 00:20:04;;;;;;;4.93;3.30;;;;;;;;;;5043759;28;20256;-80
2024/02/07 00:22:35;;;;;;;6.10;2.87;;;;;;;;;;5060301;28;20724;-79
2024/02/07 00:25:06;;;;;;;6.47;2.50;;;;;;;;;;5063281;28;20813;-79
2024/02/07 00:27:35;;;;;;;5.30;2.30;;;;;;;;;;5042980;28;20204;-82
2024/02/07 00:30:10;;;;;;;4.97;2.70;;;;;;;;;;5054900;28;20280;-79
2024/02/07 00:32:53;;;;;;;4.87;2.70;;;;;;;;;;5056873;28;20692;-79
2024/02/07 00:35:21;;;;;;;4.80;2.97;;;;;;;;;;5054556;28;20189;-79
2024/02/07 00:37:48;;;;;;;5.43;2.63;;;;;;;;;;5051683;28;20658;-80
2024/02/07 00:40:15;;;;;;;4.60;2.80;;;;;;;;;;5030371;28;20686;-79
2024/02/07 00:42:41;;;;;;;3.77;2.60;;;;;;;;;;5039484;28;20305;-81
2024/02/07 00:45:11;;;;;;;4.57;2.80;;;;;;;;;;5064686;28;20229;-79
2024/02/07 00:47:42;;;;;;;4.17;3.10;;;;;;;;;;5058430;28;20261;-79
2024/02/07 00:50:11;;;;;;;4.30;2.80;;;;;;;;;;5041232;28;20267;-81
2024/02/07 00:52:38;;;;;;;4.30;2.50;;;;;;;;;;5048656;28;20193;-80
2024/02/07 00:55:09;;;;;;;6.27;2.83;;;;;;;;;;5055437;28;20255;-81
2024/02/07 00:57:40;;;;;;;3.57;2.20;;;;;;;;;;5062962;28;20233;-79
2024/02/07 01:00:13;;;;;;;2.93;1.90;;;;;;;;;;5045154;28;20251;-78
2024/02/07 01:02:48;;;;;;;2.90;2.03;;;;;;;;;;5049734;28;20224;-79
2024/02/07 01:05:19;;;;;;;4.17;1.70;;;;;;;;;;5067434;28;20201;-80
2024/02/07 01:07:47;;;;;;;3.97;1.70;;;;;;;;;;5052502;28;20196;-78
2024/02/07 01:10:14;;;;;;;3.07;1.40;;;;;;;;;;5056295;28;20210;-80
2024/02/07 01:12:44;;;;;;;2.97;1.37;;;;;;;;;;5062785;28;20197;-81
2024/02/07 01:15:15;;;;;;;3.43;1.50;;;;;;;;;;5065250;28;20195;-80
2024/02/07 01:17:42;;;;;;;3.90;1.60;;;;;;;;;;5055673;28;20200;-79
2024/02/07 01:20:15;;;;;;;2.67;1.50;;;;;;;;;;5061599;28;20213;-80
2024/02/07 01:22:42;;;;;;;2.83;1.40;;;;;;;;;;5055927;28;20195;-80
2024/02/07 01:25:09;;;;;;;2.17;1.40;;;;;;;;;;5065711;28;20196;-80
2024/02/07 01:27:36;;;;;;;2.43;1.77;;;;;;;;;;5070780;28;20206;-83
2024/02/07 01:30:07;;;;;;;2.83;1.50;;;;;;;;;;5055131;28;20692;-80
2024/02/07 01:32:34;;;;;;;2.77;2.07;;;;;;;;;;5058300;28;20201;-79
2024/02/07 01:35:01;;;;;;;2.40;1.37;;;;;;;;;;5054090;28;20507;-82
2024/02/07 01:37:30;;;;;;;3.33;1.57;;;;;;;;;;5044978;28;20258;-80
2024/02/07 01:40:09;;;;;;;2.50;1.40;;;;;;;;;;5049940;28;20212;-79
2024/02/07 01:42:47;;;;;;;2.27;1.33;;;;;;;;;;5053850;28;20226;-80
2024/02/07 01:45:33;;;;;;;2.67;1.30;;;;;;;;;;5056289;28;20212;-80
2024/02/07 01:48:01;;;;;;;2.87;1.27;;;;;;;;;;5057392;28;20217;-80
2024/02/07 01:50:30;;;;;;;2.33;1.47;;;;;;;;;;5043296;28;20224;-79
2024/02/07 01:53:06;;;;;;;2.20;1.30;;;;;;;;;;5052032;28;20233;-80
2024/02/07 01:55:35;;;;;;;2.13;1.20;;;;;;;;;;5055306;28;20197;-80
2024/02/07 01:58:03;;;;;;;4.20;1.50;;;;;;;;;;5058768;28;20221;-81
2024/02/07 02:00:34;;;;;;;5.50;1.60;;;;;;;;;;5062147;28;20193;-79
2024/02/07 02:03:03;;;;;;;2.47;1.30;;;;;;;;;;5063669;28;20189;-79
2024/02/07 02:05:32;;;;;;;1.73;1.30;;;;;;;;;;5054128;28;20293;-79
2024/02/07 02:08:02;;;;;;;2.93;1.10;;;;;;;;;;5055138;28;20204;-80
2024/02/07 02:10:31;;;;;;;4.57;1.50;;;;;;;;;;5055180;28;20672;-79
2024/02/07 02:12:58;;;;;;;3.73;1.30;;;;;;;;;;5064139;28;20220;-81
2024/02/07 02:15:29;;;;;;;3.20;1.10;;;;;;;;;;5071647;28;20196;-81
2024/02/07 02:17:59;;;;;;;3.97;1.47;;;;;;;;;;5033897;28;20646;-81
2024/02/07 02:20:29;;;;;;;2.67;1.40;;;;;;;;;;5055023;28;20244;-82
2024/02/07 02:22:56;;;;;;;3.90;1.23;;;;;;;;;;5067286;28;20315;-77
2024/02/07 02:25:44;;;;;;;3.00;1.40;;;;;;;;;;5055337;28;20209;-79
2024/02/07 02:28:18;;;;;;;2.23;1.17;;;;;;;;;;5042587;28;20285;-82
2024/02/07 02:30:50;;;;;;;2.63;1.20;;;;;;;;;;5055195;28;20181;-79
2024/02/07 02:33:21;;;;;;;2.63;1.40;;;;;;;;;;5065013;28;20202;-80
2024/02/07 02:35:53;;;;;;;2.63;1.10;;;;;;;;;;5055712;28;20254;-81
2024/02/07 02:38:25;;;;;;;3.43;1.23;;;;;;;;;;5057696;28;20285;-79
2024/02/07 02:40:52;;;;;;;2.37;1.40;;;;;;;;;;5060092;28;20229;-80
2024/02/07 02:43:24;;;;;;;2.50;1.33;;;;;;;;;;5072111;28;20192;-80
2024/02/07 02:45:52;;;;;;;3.03;1.30;;;;;;;;;;5054490;28;20198;-81
2024/02/07 02:48:19;;;;;;;3.13;1.20;;;;;;;;;;5054513;28;20197;-80
2024/02/07 02:50:46;;;;;;;3.83;1.20;;;;;;;;;;5054401;28;20221;-79
2024/02/07 02:53:16;;;;;;;1.83;1.30;;;;;;;;;;5058163;28;20669;-80
2024/02/07 02:55:45;;;;;;;3.03;1.30;;;;;;;;;;5036888;28;20228;-80
2024/02/07 02:58:18;;;;;;;1.57;1.20;;;;;;;;;;5053639;28;20225;-83
2024/02/07 03:01:06;;;;;;;3.00;1.30;;;;;;;;;;5050069;28;20240;-78
2024/02/07 03:03:33;;;;;;;3.30;1.23;;;;;;;;;;5048652;28;20207;-79
2024/02/07 03:06:18;;;;;;;2.27;1.40;;;;;;;;;;5053923;28;20193;-82
2024/02/07 03:08:54;;;;;;;3.17;1.20;;;;;;;;;;5063500;28;20661;-79
2024/02/07 03:11:23;;;;;;;3.30;1.43;;;;;;;;;;5053993;28;20191;-79
2024/02/07 03:13:50;;;;;;;2.40;1.37;;;;;;;;;;5053952;28;20405;-83
2024/02/07 03:16:19;;;;;;;4.83;1.80;;;;;;;;;;5058269;28;20200;-81
2024/02/07 03:18:49;;;;;;;3.30;1.43;;;;;;;;;;5053714;28;20300;-81
2024/02/07 03:21:18;;;;;;;2.70;1.67;;;;;;;;;;5053778;28;20229;-80
2024/02/07 03:23:50;;;;;;;3.73;2.00;;;;;;;;;;5056471;28;20196;-80
2024/02/07 03:26:22;;;;;;;3.03;2.07;;;;;;;;;;5042275;28;20206;-81
2024/02/07 03:28:51;;;;;;;2.87;2.03;;;;;;;;;;5036916;28;20277;-80
2024/02/07 03:31:21;;;;;;;3.47;2.10;;;;;;;;;;5043548;28;20212;-79
2024/02/07 03:33:50;;;;;;;4.67;2.30;;;;;;;;;;5055583;28;20269;-80
2024/02/07 03:36:21;;;;;;;2.60;1.60;;;;;;;;;;5053626;28;20277;-81
2024/02/07 03:38:55;;;;;;;3.40;2.13;;;;;;;;;;5053292;28;20276;-82
2024/02/07 03:41:26;;;;;;;3.20;1.93;;;;;;;;;;5053407;28;20633;-79
2024/02/07 03:43:58;;;;;;;4.10;2.00;;;;;;;;;;5051030;28;20272;-79
2024/02/07 03:46:29;;;;;;;4.00;1.80;;;;;;;;;;5052917;28;20201;-79
2024/02/07 03:48:56;;;;;;;4.23;2.10;;;;;;;;;;5054701;28;20228;-82
2024/02/07 03:51:27;;;;;;;2.27;1.80;;;;;;;;;;5059685;28;20270;-80
2024/02/07 03:53:59;;;;;;;2.93;2.00;;;;;;;;;;5057389;28;20696;-80
2024/02/07 03:56:25;;;;;;;4.60;1.70;;;;;;;;;;5062340;28;20197;-79
2024/02/07 03:58:54;;;;;;;4.37;1.90;;;;;;;;;;5056932;28;20276;-81
2024/02/07 04:01:20;;;;;;;4.07;1.77;;;;;;;;;;5053109;28;20237;-79
2024/02/07 04:03:53;;;;;;;3.00;1.70;;;;;;;;;;5052855;28;20671;-81
2024/02/07 04:06:20;;;;;;;3.00;2.10;;;;;;;;;;5052578;28;20188;-79
2024/02/07 04:08:47;;;;;;;3.53;1.90;;;;;;;;;;5055168;28;20311;-81
2024/02/07 05:17:09;;;;;;;4.47;1.50;;;;;;;;;;5053183;28;20276;-78
2024/02/07 05:19:36;;;;;;;4.17;1.77;;;;;;;;;;5035350;28;20263;-80
2024/02/07 05:22:03;;;;;;;4.13;1.70;;;;;;;;;;5053325;28;20221;-83
2024/02/07 05:24:36;;;;;;;4.50;1.80;;;;;;;;;;5053122;28;20181;-79
2024/02/07 05:27:06;;;;;;;3.53;1.40;;;;;;;;;;5052922;28;20176;-80
2024/02/07 05:29:35;;;;;;;3.83;1.60;;;;;;;;;;5053087;28;20194;-81
2024/02/07 05:32:01;;;;;;;4.27;1.60;;;;;;;;;;5035187;28;20260;-81
2024/02/07 05:34:28;;;;;;;5.67;1.50;;;;;;;;;;5053194;28;20186;-80
2024/02/07 05:37:15;;;;;;;3.77;1.30;;;;;;;;;;5053224;28;20189;-79
2024/02/07 05:39:42;;;;;;;2.67;1.10;;;;;;;;;;5035519;28;20247;-80
2024/02/07 05:42:32;;;;;;;2.77;1.37;;;;;;;;;;5033991;28;20280;-80
2024/02/07 05:45:01;;;;;;;3.07;1.30;;;;;;;;;;5035993;28;20244;-80
2024/02/07 05:47:28;;;;;;;2.63;0.90;;;;;;;;;;5051623;28;20202;-80
2024/02/07 05:49:59;;;;;;;2.47;1.30;;;;;;;;;;5053267;28;20170;-80
2024/02/07 05:52:29;;;;;;;2.03;1.17;;;;;;;;;;5052980;28;20212;-79
2024/02/07 05:54:56;;;;;;;2.10;1.10;;;;;;;;;;5037294;28;20194;-80
2024/02/07 05:57:24;;;;;;;2.73;1.20;;;;;;;;;;5056665;28;20232;-83
2024/02/07 05:59:55;;;;;;;2.63;1.00;;;;;;;;;;5056561;28;20174;-79
2024/02/07 06:02:24;;;;;;;1.33;1.10;;;;;;;;;;5040258;28;20235;-79
2024/02/07 06:04:52;;;;;;;3.57;1.20;;;;;;;;;;5025242;28;20243;-81
2024/02/07 06:07:24;;;;;;;1.63;1.07;;;;;;;;;;5021501;28;20214;-80
2024/02/07 06:09:51;;;;;;;1.90;1.20;;;;;;;;;;5037849;28;20232;-80
2024/02/07 06:12:20;;;;;;;2.13;1.50;;;;;;;;;;5017597;28;20206;-81
2024/02/07 06:14:47;;;;;;;3.30;1.53;;;;;;;;;;5025160;28;20209;-82
2024/02/07 06:17:14;;;;;;;1.50;1.20;;;;;;;;;;5017389;28;20209;-80
2024/02/07 06:19:41;;;;;;;4.17;1.67;;;;;;;;;;5018968;28;20202;-80
2024/02/07 06:22:13;;;;;;;5.13;1.47;;;;;;;;;;5010474;28;20714;-78
2024/02/07 06:25:03;;;;;;;2.60;1.47;;;;;;;;;;5006752;28;20513;-80
2024/02/07 06:27:35;;;;;;;2.43;1.20;;;;;;;;;;5028862;28;20211;-79
2024/02/07 06:30:01;;;;;;;1.87;1.10;;;;;;;;;;4997453;28;20202;-80
2024/02/07 06:32:28;;;;;;;2.37;1.30;;;;;;;;;;5031460;28;20190;-80
2024/02/07 06:34:55;;;;;;;2.10;1.10;;;;;;;;;;5017457;28;20288;-79
2024/02/07 06:37:28;;;;;;;2.60;1.10;;;;;;;;;;5034919;28;20182;-78
2024/02/07 06:39:55;;;;;;;2.60;1.07;;;;;;;;;;5033552;28;20199;-81
2024/02/07 06:42:27;;;;;;;2.97;0.93;;;;;;;;;;5038217;28;20209;-80
2024/02/07 06:44:53;;;;;;;1.23;0.90;;;;;;;;;;5026443;28;20217;-78
2024/02/07 06:47:20;;;;;;;2.33;1.23;;;;;;;;;;5033965;28;20186;-79
2024/02/07 06:49:47;;;;;;;2.13;1.20;;;;;;;;;;5043900;28;20189;-83
2024/02/07 06:52:17;;;;;;;2.90;2.27;;;;;;;;;;5019782;28;20709;-80
2024/02/07 06:54:43;;;;;;;3.33;2.50;;;;;;;;;;5049142;28;20185;-80
2024/02/07 06:57:18;;;;;;;4.87;2.30;;;;;;;;;;5037595;28;20222;-81
2024/02/07 06:59:51;;;;;;;3.23;1.90;;;;;;;;;;5034172;28;20193;-80
2024/02/07 07:02:21;;;;;;;3.77;2.30;;;;;;;;;;5035580;28;20279;-82
2024/02/07 07:04:48;;;;;;;4.30;2.60;;;;;;;;;;5045849;28;20273;-80
2024/02/07 07:07:16;;;;;;;4.97;2.30;;;;;;;;;;5010367;28;20819;-80
2024/02/07 07:09:48;;;;;;;7.27;2.60;;;;;;;;;;5024219;28;20202;-79
2024/02/07 07:12:19;;;;;;;4.53;3.30;;;;;;;;;;5001186;28;20301;-83
2024/02/07 07:14:58;;;;;;;23.23;17.50;;;;;;;;;;5024604;28;20196;-79
2024/02/07 07:17:32;;;;;;;8.57;7.60;;;;;;;;;;5018260;28;20204;-81
2024/02/07 07:20:02;;;;;;;7.93;5.07;;;;;;;;;;5042207;28;20187;-82
2024/02/07 07:22:28;;;;;;;6.53;4.03;;;;;;;;;;5039878;28;20214;-79
2024/02/07 07:24:55;;;;;;;5.07;3.10;;;;;;;;;;5012059;28;20229;-80
2024/02/07 07:27:26;;;;;;;3.40;1.70;;;;;;;;;;5024175;28;20767;-80
2024/02/07 07:29:56;;;;;;;3.53;1.77;;;;;;;;;;5025724;28;20194;-80
2024/02/07 07:32:26;;;;;;;2.80;2.07;;;;;;;;;;5015785;28;20707;-79
2024/02/07 07:34:53;;;;;;;1.93;0.90;;;;;;;;;;5030728;28;20615;-80
2024/02/07 07:37:26;;;;;;;3.33;0.80;;;;;;;;;;5029125;28;20225;-80
2024/02/07 07:39:55;;;;;;;3.33;0.97;;;;;;;;;;5010881;28;20201;-78
2024/02/07 07:42:37;;;;;;;2.53;0.50;;;;;;;;;;5028920;28;20202;-78
2024/02/07 07:45:04;;;;;;;1.90;0.60;;;;;;;;;;5031998;28;20194;-79
2024/02/07 07:47:34;;;;;;;1.07;0.70;;;;;;;;;;5027946;28;20245;-79
2024/02/07 07:50:04;;;;;;;1.97;0.60;;;;;;;;;;5029957;28;20215;-79
2024/02/07 07:52:31;;;;;;;1.70;0.50;;;;;;;;;;5032112;28;20219;-80
2024/02/07 07:54:59;;;;;;;1.13;0.57;;;;;;;;;;5033075;28;20194;-80
2024/02/07 07:57:28;;;;;;;1.43;0.50;;;;;;;;;;5013611;28;20717;-79
2024/02/07 07:59:56;;;;;;;0.60;0.50;;;;;;;;;;5052082;28;20255;-78
2024/02/07 08:02:22;;;;;;;2.33;0.50;;;;;;;;;;5006911;28;20229;-79
2024/02/07 08:04:49;;;;;;;1.90;0.50;;;;;;;;;;5063238;28;20697;-79
2024/02/07 08:07:16;;;;;;;2.33;0.40;;;;;;;;;;5062408;28;20193;-79
2024/02/07 08:09:43;;;;;;;1.47;0.70;;;;;;;;;;5049995;28;20652;-79
2024/02/07 08:12:09;;;;;;;0.60;0.40;;;;;;;;;;5053375;28;20199;-79
2024/02/07 08:14:38;;;;;;;1.40;0.60;;;;;;;;;;5055823;28;20678;-83
2024/02/07 08:17:05;;;;;;;0.73;0.50;;;;;;;;;;5045841;28;20210;-79
2024/02/07 08:19:34;;;;;;;2.00;0.60;;;;;;;;;;5054155;28;20248;-79
2024/02/07 08:22:05;;;;;;;1.93;0.50;;;;;;;;;;5054755;28;20217;-78
2024/02/07 08:24:31;;;;;;;1.33;0.50;;;;;;;;;;5052185;28;20210;-79
2024/02/07 08:26:58;;;;;;;0.87;0.40;;;;;;;;;;5062810;28;20199;-79
2024/02/07 08:29:29;;;;;;;1.00;0.50;;;;;;;;;;5056989;28;20196;-79
2024/02/07 08:31:59;;;;;;;1.90;0.60;;;;;;;;;;5054907;28;20200;-80
2024/02/07 08:34:30;;;;;;;1.73;0.57;;;;;;;;;;5064159;28;20269;-81
2024/02/07 08:36:57;;;;;;;1.20;0.40;;;;;;;;;;5051500;28;20196;-79
2024/02/07 08:39:29;;;;;;;1.00;0.50;;;;;;;;;;5033970;28;20691;-79
2024/02/07 08:41:56;;;;;;;1.60;0.60;;;;;;;;;;5051812;28;20235;-80
2024/02/07 08:44:28;;;;;;;1.80;0.50;;;;;;;;;;5058961;28;20262;-79
2024/02/07 08:46:57;;;;;;;1.90;0.50;;;;;;;;;;5053052;28;20657;-79
2024/02/07 08:49:25;;;;;;;1.80;0.50;;;;;;;;;;5052531;28;20282;-81
2024/02/07 08:51:59;;;;;;;1.33;0.40;;;;;;;;;;5052540;28;20221;-79
2024/02/07 08:54:29;;;;;;;2.00;0.50;;;;;;;;;;5052304;28;20201;-81
2024/02/07 08:56:59;;;;;;;1.90;0.40;;;;;;;;;;5054035;28;20193;-79
2024/02/07 08:59:28;;;;;;;0.50;0.40;;;;;;;;;;5055834;28;20272;-80
2024/02/07 09:01:58;;;;;;;1.27;0.40;;;;;;;;;;5056800;28;20305;-79
2024/02/07 09:04:28;;;;;;;0.73;0.40;;;;;;;;;;5056902;28;20206;-80
2024/02/07 09:06:54;;;;;;;0.70;0.50;;;;;;;;;;5051817;28;20252;-79
2024/02/07 09:09:21;;;;;;;0.97;0.50;;;;;;;;;;5058034;28;20672;-80
2024/02/07 09:11:50;;;;;;;1.40;0.50;;;;;;;;;;5042634;28;20198;-80
2024/02/07 09:14:20;;;;;;;1.37;0.57;;;;;;;;;;5050887;28;20202;-79
2024/02/07 09:16:47;;;;;;;1.23;0.33;;;;;;;;;;5037060;28;20250;-79
2024/02/07 09:19:19;;;;;;;0.80;0.40;;;;;;;;;;5056385;28;20212;-80
2024/02/07 09:21:49;;;;;;;0.83;0.40;;;;;;;;;;5060352;28;20209;-80
2024/02/07 09:24:17;;;;;;;0.67;0.30;;;;;;;;;;5066005;28;20197;-80
2024/02/07 09:26:47;;;;;;;0.77;0.40;;;;;;;;;;5034238;28;20293;-80
2024/02/07 09:29:19;;;;;;;0.40;0.40;;;;;;;;;;5052755;28;20193;-81
2024/02/07 09:31:53;;;;;;;1.43;0.60;;;;;;;;;;5057676;28;20193;-80
2024/02/07 09:34:20;;;;;;;0.97;0.30;;;;;;;;;;5055065;28;20216;-80
2024/02/07 09:36:47;;;;;;;2.03;0.40;;;;;;;;;;5056416;28;20292;-80
2024/02/07 09:39:17;;;;;;;0.73;0.40;;;;;;;;;;5060672;28;20357;-81
2024/02/07 09:41:48;;;;;;;1.10;0.40;;;;;;;;;;5062058;28;20223;-80
2024/02/07 09:44:18;;;;;;;1.83;0.50;;;;;;;;;;5065526;28;20204;-79
2024/02/07 09:46:53;;;;;;;1.43;0.40;;;;;;;;;;5060101;28;20197;-80
2024/02/07 09:49:24;;;;;;;1.83;0.50;;;;;;;;;;5061143;28;20268;-80
2024/02/07 09:51:52;;;;;;;0.80;0.50;;;;;;;;;;5059735;28;20216;-80
2024/02/07 09:54:19;;;;;;;1.07;0.60;;;;;;;;;;5063649;28;20204;-80
2024/02/07 09:56:46;;;;;;;1.73;0.43;;;;;;;;;;5056197;28;20201;-79
2024/02/07 09:59:15;;;;;;;0.57;0.30;;;;;;;;;;5056334;28;20194;-80
2024/02/07 10:01:47;;;;;;;0.60;0.40;;;;;;;;;;5055182;28;20228;-80
2024/02/07 10:04:21;;;;;;;1.00;0.53;;;;;;;;;;5037222;28;20225;-80
2024/02/07 10:06:48;;;;;;;0.70;0.40;;;;;;;;;;5054828;28;20225;-79
2024/02/07 10:09:18;;;;;;;1.20;0.50;;;;;;;;;;5066832;28;20258;-79
2024/02/07 10:11:45;;;;;;;3.03;0.60;;;;;;;;;;5056144;28;20198;-79
2024/02/07 10:14:12;;;;;;;2.17;0.70;;;;;;;;;;5067761;28;20220;-79
2024/02/07 10:16:42;;;;;;;2.23;0.67;;;;;;;;;;5054740;28;20190;-80
2024/02/07 10:19:09;;;;;;;1.63;0.73;;;;;;;;;;5060984;28;20221;-79
2024/02/07 10:21:36;;;;;;;1.07;0.47;;;;;;;;;;5057100;28;20236;-80
2024/02/07 10:24:04;;;;;;;1.10;0.40;;;;;;;;;;5050830;28;20238;-79
2024/02/07 10:26:31;;;;;;;1.63;0.60;;;;;;;;;;5062083;28;20678;-79
2024/02/07 10:29:01;;;;;;;0.83;0.50;;;;;;;;;;5041312;28;20193;-79
2024/02/07 10:31:28;;;;;;;0.97;0.60;;;;;;;;;;5057915;28;20205;-80
2024/02/07 10:33:57;;;;;;;1.37;0.60;;;;;;;;;;5060684;28;20197;-81
2024/02/07 10:36:27;;;;;;;2.17;0.60;;;;;;;;;;5060203;28;20819;-80
2024/02/07 10:39:01;;;;;;;1.30;0.73;;;;;;;;;;5061678;28;20225;-81
2024/02/07 10:41:28;;;;;;;1.07;0.60;;;;;;;;;;5030042;28;20229;-81
2024/02/07 10:44:08;;;;;;;1.03;0.70;;;;;;;;;;5055744;28;20258;-80
2024/02/07 10:46:35;;;;;;;1.03;0.50;;;;;;;;;;5056758;28;20193;-80
2024/02/07 10:49:03;;;;;;;3.00;0.70;;;;;;;;;;5038748;28;20194;-82
2024/02/07 10:51:31;;;;;;;1.73;0.40;;;;;;;;;;5052197;28;20225;-82
2024/02/07 10:54:04;;;;;;;1.00;0.50;;;;;;;;;;5051907;28;20191;-80
2024/02/07 10:56:36;;;;;;;2.13;0.80;;;;;;;;;;5036332;28;20288;-80
2024/02/07 10:59:09;;;;;;;0.60;0.40;;;;;;;;;;5059771;28;20233;-80
2024/02/07 11:01:38;;;;;;;0.70;0.47;;;;;;;;;;5053021;28;20275;-81
2024/02/07 11:04:08;;;;;;;1.47;0.60;;;;;;;;;;5035148;28;20208;-80
2024/02/07 11:06:37;;;;;;;0.93;0.47;;;;;;;;;;5052744;28;20192;-81
2024/02/07 11:09:06;;;;;;;2.43;0.80;;;;;;;;;;5052367;28;20677;-80
2024/02/07 11:11:33;;;;;;;1.17;0.57;;;;;;;;;;5052026;28;20666;-81
2024/02/07 11:14:03;;;;;;;1.63;0.60;;;;;;;;;;5051966;28;20204;-82
2024/02/07 11:16:37;;;;;;;1.70;0.57;;;;;;;;;;5051336;28;20196;-80
2024/02/07 11:19:04;;;;;;;1.47;0.50;;;;;;;;;;5051933;28;20196;-80
2024/02/07 11:21:36;;;;;;;1.23;0.63;;;;;;;;;;5051907;28;20205;-80
2024/02/07 11:24:03;;;;;;;2.37;0.60;;;;;;;;;;5052141;28;20219;-81
2024/02/07 11:26:31;;;;;;;2.10;0.50;;;;;;;;;;5055647;28;20658;-79
2024/02/07 11:29:04;;;;;;;0.80;0.50;;;;;;;;;;5046762;28;20281;-82
2024/02/07 11:31:34;;;;;;;1.30;0.40;;;;;;;;;;5063546;28;20204;-80
2024/02/07 11:34:06;;;;;;;1.63;0.40;;;;;;;;;;5065920;28;20244;-80
2024/02/07 11:36:35;;;;;;;1.43;0.50;;;;;;;;;;5041776;28;20210;-79
2024/02/07 11:39:13;;;;;;;0.70;0.40;;;;;;;;;;5060085;28;20197;-80
2024/02/07 11:41:47;;;;;;;0.87;0.60;;;;;;;;;;5036792;28;20229;-79
2024/02/07 11:44:38;;;;;;;1.87;0.70;;;;;;;;;;5051556;28;20224;-79
2024/02/07 11:47:06;;;;;;;1.47;0.60;;;;;;;;;;5050337;28;20202;-80
2024/02/07 11:49:37;;;;;;;1.13;0.60;;;;;;;;;;5048601;28;20614;-84
2024/02/07 11:52:10;;;;;;;1.63;0.60;;;;;;;;;;5050687;28;20197;-80
2024/02/07 11:54:37;;;;;;;1.63;0.50;;;;;;;;;;5039298;28;20194;-79
2024/02/07 11:57:09;;;;;;;1.43;0.70;;;;;;;;;;5052168;28;20189;-82
2024/02/07 11:59:38;;;;;;;4.30;1.77;;;;;;;;;;5038400;28;20194;-80
2024/02/07 12:02:09;;;;;;;1.93;0.70;;;;;;;;;;5024855;28;20223;-81
2024/02/07 12:04:36;;;;;;;2.03;1.00;;;;;;;;;;5041046;28;20694;-81
2024/02/07 12:07:08;;;;;;;2.07;0.80;;;;;;;;;;5044643;28;20186;-79
2024/02/07 12:09:37;;;;;;;0.90;0.60;;;;;;;;;;5032268;28;20189;-81
2024/02/07 12:12:06;;;;;;;1.77;0.80;;;;;;;;;;5061233;28;20201;-80
2024/02/07 12:14:35;;;;;;;2.93;1.03;;;;;;;;;;5035561;28;20220;-79
2024/02/07 12:17:02;;;;;;;3.53;1.00;;;;;;;;;;5048498;28;20682;-79
2024/02/07 12:19:31;;;;;;;2.03;0.80;;;;;;;;;;5050700;28;20251;-79
2024/02/07 12:22:03;;;;;;;2.00;0.70;;;;;;;;;;5050193;28;20220;-81
2024/02/07 12:24:32;;;;;;;2.67;0.97;;;;;;;;;;5049284;28;20228;-79
2024/02/07 12:27:08;;;;;;;1.67;0.80;;;;;;;;;;5055942;28;20194;-79
2024/02/07 12:29:44;;;;;;;2.90;0.90;;;;;;;;;;5052061;28;20231;-81
2024/02/07 12:32:29;;;;;;;2.33;1.00;;;;;;;;;;5058092;28;20194;-80
2024/02/07 12:34:58;;;;;;;1.53;0.70;;;;;;;;;;5049425;28;20205;-79
2024/02/07 12:37:41;;;;;;;3.80;2.07;;;;;;;;;;5054433;28;20197;-79
2024/02/07 12:40:12;;;;;;;11.33;7.27;;;;;;;;;;5045430;28;20205;-77
2024/02/07 12:42:44;;;;;;;16.90;10.13;;;;;;;;;;5044383;28;20270;-76
2024/02/07 12:45:14;;;;;;;6.67;3.17;;;;;;;;;;5056753;28;20690;-75
2024/02/07 12:47:43;;;;;;;7.17;4.20;;;;;;;;;;5048495;28;20193;-75
2024/02/07 12:50:10;;;;;;;5.07;2.83;;;;;;;;;;5038076;28;20202;-76
2024/02/07 12:52:40;;;;;;;4.77;2.90;;;;;;;;;;5041373;28;20733;-74
2024/02/07 12:55:11;;;;;;;1.90;0.97;;;;;;;;;;5053987;28;20197;-75
2024/02/07 12:57:38;;;;;;;2.63;2.03;;;;;;;;;;5040786;28;20602;-77
2024/02/07 13:00:09;;;;;;;3.57;2.00;;;;;;;;;;5055119;28;20805;-76
2024/02/07 13:02:45;;;;;;;3.40;2.27;;;;;;;;;;5046735;28;20297;-77
2024/02/07 13:05:22;;;;;;;2.37;1.50;;;;;;;;;;5049581;28;20641;-79
2024/02/07 13:07:50;;;;;;;3.27;1.10;;;;;;;;;;5050241;28;20252;-74
2024/02/07 13:10:20;;;;;;;1.47;0.70;;;;;;;;;;5051174;28;20285;-76
2024/02/07 13:12:50;;;;;;;3.67;1.57;;;;;;;;;;5053030;28;20235;-75
2024/02/07 13:15:19;;;;;;;2.67;1.30;;;;;;;;;;5057073;28;20206;-77
2024/02/07 13:17:48;;;;;;;2.90;1.10;;;;;;;;;;5053541;28;20192;-76
2024/02/07 13:20:20;;;;;;;3.27;1.70;;;;;;;;;;5058575;28;20197;-78
2024/02/07 13:22:52;;;;;;;2.80;1.07;;;;;;;;;;5054940;28;20237;-77
2024/02/07 13:25:21;;;;;;;2.93;1.30;;;;;;;;;;5053983;28;20239;-74
2024/02/07 13:27:48;;;;;;;1.67;0.87;;;;;;;;;;5059443;28;20271;-75
2024/02/07 13:30:17;;;;;;;2.63;1.40;;;;;;;;;;5056061;28;20200;-75
2024/02/07 13:32:49;;;;;;;2.23;1.40;;;;;;;;;;5054358;28;20182;-76
2024/02/07 13:35:19;;;;;;;2.00;1.17;;;;;;;;;;5044765;28;20744;-77
2024/02/07 13:37:46;;;;;;;3.00;1.10;;;;;;;;;;5043790;28;20212;-75
2024/02/07 13:40:14;;;;;;;1.67;1.10;;;;;;;;;;5055755;28;20197;-76
2024/02/07 13:42:40;;;;;;;3.07;1.00;;;;;;;;;;5043450;28;20206;-78
2024/02/07 13:45:10;;;;;;;3.53;1.40;;;;;;;;;;5049526;28;20200;-77
2024/02/07 13:47:37;;;;;;;3.37;1.30;;;;;;;;;;5044041;28;20224;-79
2024/02/07 13:50:07;;;;;;;2.23;1.00;;;;;;;;;;5064613;28;20201;-79
2024/02/07 13:52:34;;;;;;;1.30;0.73;;;;;;;;;;5050451;28;20215;-79
2024/02/07 13:55:03;;;;;;;1.90;1.00;;;;;;;;;;5050256;28;20236;-79
2024/02/07 13:57:31;;;;;;;2.37;1.00;;;;;;;;;;5060356;28;20229;-80
2024/02/07 13:59:58;;;;;;;1.67;0.83;;;;;;;;;;5040045;28;20201;-79
2024/02/07 14:02:25;;;;;;;1.07;0.70;;;;;;;;;;5025657;28;20222;-78
2024/02/07 14:05:03;;;;;;;3.33;0.90;;;;;;;;;;5028547;28;20297;-79
2024/02/07 14:07:40;;;;;;;1.83;1.00;;;;;;;;;;5032488;28;20198;-80
2024/02/07 14:10:07;;;;;;;1.93;1.33;;;;;;;;;;5021228;28;20244;-79
2024/02/07 14:12:34;;;;;;;6.10;2.00;;;;;;;;;;5019131;28;20213;-80
2024/02/07 14:15:01;;;;;;;3.00;1.90;;;;;;;;;;5031908;28;20199;-80
2024/02/07 14:17:28;;;;;;;3.47;2.57;;;;;;;;;;5013092;28;20268;-80
2024/02/07 14:19:55;;;;;;;3.50;1.80;;;;;;;;;;5012189;28;20652;-80
2024/02/07 14:22:21;;;;;;;3.43;2.20;;;;;;;;;;5011926;28;20198;-80
2024/02/07 14:24:51;;;;;;;2.70;2.30;;;;;;;;;;5014587;28;20229;-80
2024/02/07 14:27:19;;;;;;;4.40;2.37;;;;;;;;;;5015545;28;20747;-79
2024/02/07 14:29:49;;;;;;;2.67;1.27;;;;;;;;;;5047724;28;20361;-79
2024/02/07 14:32:16;;;;;;;2.97;1.40;;;;;;;;;;5034048;28;20191;-79
2024/02/07 14:34:45;;;;;;;2.17;1.00;;;;;;;;;;5041879;28;20201;-80
2024/02/07 14:37:15;;;;;;;2.17;1.00;;;;;;;;;;5035080;28;20357;-79
2024/02/07 14:39:45;;;;;;;2.03;0.93;;;;;;;;;;5045111;28;20194;-80
2024/02/07 14:42:12;;;;;;;1.90;1.20;;;;;;;;;;5028592;28;20187;-80
2024/02/07 14:45:08;;;;;;;2.23;1.10;;;;;;;;;;5035496;28;20205;-80
2024/02/07 14:47:54;;;;;;;1.20;1.10;;;;;;;;;;5037407;28;20212;-79
2024/02/07 14:50:25;;;;;;;1.73;1.10;;;;;;;;;;5036774;28;20182;-80
2024/02/07 14:52:55;;;;;;;2.67;1.20;;;;;;;;;;5025311;28;20198;-80
2024/02/07 14:55:21;;;;;;;2.67;1.73;;;;;;;;;;5034784;28;20201;-79
2024/02/07 14:57:50;;;;;;;3.17;2.00;;;;;;;;;;5017979;28;20617;-79
2024/02/07 15:00:18;;;;;;;3.03;2.57;;;;;;;;;;5034700;28;20248;-79
2024/02/07 15:02:50;;;;;;;3.57;2.03;;;;;;;;;;5041114;28;20521;-80
2024/02/07 15:05:16;;;;;;;1.63;1.37;;;;;;;;;;5040929;28;20285;-80
2024/02/07 15:07:49;;;;;;;1.20;1.10;;;;;;;;;;5015514;28;20216;-80
2024/02/07 15:10:19;;;;;;;2.27;0.90;;;;;;;;;;5014811;28;20253;-81
2024/02/07 15:12:46;;;;;;;1.53;1.13;;;;;;;;;;5036176;28;20202;-79
2024/02/07 15:15:20;;;;;;;2.17;1.13;;;;;;;;;;5034570;28;20876;-80
2024/02/07 15:17:48;;;;;;;1.30;0.90;;;;;;;;;;5040937;28;20226;-81
2024/02/07 15:20:17;;;;;;;2.23;1.10;;;;;;;;;;5035140;28;20241;-81
2024/02/07 15:22:44;;;;;;;1.30;1.00;;;;;;;;;;5039028;28;20655;-80
2024/02/07 15:25:11;;;;;;;2.80;1.60;;;;;;;;;;5011624;28;20194;-80
2024/02/07 15:27:41;;;;;;;3.70;2.30;;;;;;;;;;5040819;28;20230;-80
2024/02/07 15:30:11;;;;;;;2.43;1.70;;;;;;;;;;5032826;28;20225;-80
2024/02/07 15:32:38;;;;;;;3.23;1.83;;;;;;;;;;5038480;28;20277;-80
2024/02/07 15:35:08;;;;;;;2.23;0.90;;;;;;;;;;5032059;28;20202;-79
2024/02/07 15:37:35;;;;;;;0.87;0.70;;;;;;;;;;5036291;28;20190;-81
2024/02/07 15:40:05;;;;;;;2.37;1.10;;;;;;;;;;5043759;28;20198;-80
2024/02/07 15:42:32;;;;;;;1.97;0.83;;;;;;;;;;5033822;28;20233;-81
2024/02/07 15:45:01;;;;;;;2.43;1.07;;;;;;;;;;5033833;28;20708;-79
2024/02/07 15:47:41;;;;;;;1.60;0.93;;;;;;;;;;5037570;28;20274;-80
2024/02/07 15:50:10;;;;;;;3.30;0.97;;;;;;;;;;5001344;28;20206;-80
2024/02/07 15:52:38;;;;;;;2.13;1.20;;;;;;;;;;5036160;28;20190;-83
2024/02/07 15:55:08;;;;;;;3.53;1.33;;;;;;;;;;5031047;28;20198;-82
2024/02/07 15:57:37;;;;;;;2.93;1.40;;;;;;;;;;5036470;28;20311;-80
2024/02/07 16:00:09;;;;;;;9.90;1.90;;;;;;;;;;5051274;28;20209;-81
2024/02/07 16:02:40;;;;;;;3.97;1.67;;;;;;;;;;5043093;28;20294;-82
2024/02/07 16:05:07;;;;;;;6.97;1.80;;;;;;;;;;5046980;28;20220;-81
2024/02/07 16:07:38;;;;;;;4.67;1.37;;;;;;;;;;5032619;28;20220;-79